Time;durP1;ratioP1;P1;durP2;ratioP2;P2;SDS_P1;SDS_P2;PMS_P1;PMS_P2;Temp;Humidity;BMP_temperature;BMP_pressure;BME280_temperature;BME280_humidity;BME280_pressure;Samples;Min_cycle;Max_cycle;Signal;HPM_P1;HPM_P2
2023/08/20 00:00:32;;;;;;;8.33;5.00;;;;;;;22.95;100.00;101532.41;2070113;28;20198;-70
2023/08/20 00:01:33;;;;;;;12.20;4.83;;;;;;;22.97;100.00;101530.66;2070004;28;20270;-69
2023/08/20 00:02:37;;;;;;;6.43;4.50;;;;;;;22.95;100.00;101533.19;2070277;28;20573;-70
2023/08/20 00:03:39;;;;;;;4.97;4.03;;;;;;;22.93;100.00;101530.09;2070561;28;20208;-70
2023/08/20 00:04:42;;;;;;;7.17;4.60;;;;;;;22.94;100.00;101537.31;2071195;28;20193;-69
2023/08/20 00:05:42;;;;;;;9.83;4.73;;;;;;;22.93;100.00;101534.97;2069866;28;20202;-69
2023/08/20 00:06:46;;;;;;;11.03;5.13;;;;;;;22.61;100.00;101485.25;2071521;28;20231;-69
2023/08/20 00:07:46;;;;;;;10.47;5.37;;;;;;;22.14;100.00;101420.66;2070176;28;20228;-69
2023/08/20 00:08:47;;;;;;;7.80;5.17;;;;;;;22.39;100.00;101460.28;2070223;28;20181;-70
2023/08/20 00:09:47;;;;;;;15.40;5.33;;;;;;;22.87;100.00;101523.59;2062528;28;20186;-69
2023/08/20 00:10:48;;;;;;;8.90;4.70;;;;;;;22.87;100.00;101522.84;2069869;28;20185;-70
2023/08/20 00:11:48;;;;;;;7.53;4.60;;;;;;;22.93;100.00;101529.31;2071042;28;20273;-69
2023/08/20 00:12:49;;;;;;;11.00;5.67;;;;;;;22.79;100.00;101524.50;2070473;28;20205;-70
2023/08/20 00:13:49;;;;;;;7.73;5.33;;;;;;;22.81;100.00;101522.75;2071018;28;20802;-70
2023/08/20 00:14:56;;;;;;;10.33;5.57;;;;;;;22.85;100.00;101528.97;2070969;28;20178;-69
2023/08/20 00:15:56;;;;;;;10.93;5.30;;;;;;;22.85;100.00;101528.97;2069888;28;20182;-70
2023/08/20 00:16:57;;;;;;;10.20;5.47;;;;;;;22.84;100.00;101533.06;2069932;28;20185;-70
2023/08/20 00:17:57;;;;;;;12.70;5.83;;;;;;;22.79;100.00;101533.00;2071148;28;20182;-69
2023/08/20 00:18:58;;;;;;;13.63;5.70;;;;;;;22.79;100.00;101530.16;2070479;28;20185;-70
2023/08/20 00:19:59;;;;;;;12.80;5.47;;;;;;;22.79;100.00;101530.16;2068427;28;20198;-69
2023/08/20 00:21:00;;;;;;;10.17;5.50;;;;;;;22.72;100.00;101530.59;2066370;28;20190;-70
2023/08/20 00:22:01;;;;;;;11.27;5.10;;;;;;;22.69;100.00;101538.03;2070531;28;20639;-69
2023/08/20 00:23:01;;;;;;;13.27;5.97;;;;;;;22.31;100.00;101475.34;2071251;28;20193;-70
2023/08/20 00:24:02;;;;;;;7.50;5.27;;;;;;;22.35;100.00;101493.59;2076464;28;20177;-70
2023/08/20 00:25:05;;;;;;;8.30;5.17;;;;;;;22.68;100.00;101550.56;2070500;28;20655;-70
2023/08/20 00:26:05;;;;;;;6.30;4.90;;;;;;;22.68;100.00;101538.50;2068972;28;20317;-70
2023/08/20 00:27:06;;;;;;;10.97;5.47;;;;;;;22.67;100.00;101540.53;2070482;28;20178;-70
2023/08/20 00:28:06;;;;;;;7.63;5.00;;;;;;;22.66;100.00;101535.38;2070600;28;20708;-70
2023/08/20 00:29:07;;;;;;;6.73;4.70;;;;;;;22.65;100.00;101534.63;2070613;28;20272;-70
2023/08/20 00:30:09;;;;;;;5.80;5.03;;;;;;;22.65;100.00;101526.16;2068845;28;20432;-70
2023/08/20 00:31:09;;;;;;;5.10;4.50;;;;;;;22.64;100.00;101532.28;2070488;28;20229;-70
2023/08/20 00:32:09;;;;;;;9.10;5.87;;;;;;;22.64;100.00;101538.72;2070030;28;20273;-69
2023/08/20 00:33:10;;;;;;;6.47;5.10;;;;;;;22.61;100.00;101536.13;2076896;28;20323;-70
2023/08/20 00:34:10;;;;;;;16.57;9.73;;;;;;;22.62;100.00;101532.00;2070470;28;20177;-70
2023/08/20 00:35:11;;;;;;;9.67;5.50;;;;;;;22.45;100.00;101525.34;2077441;28;20264;-70
2023/08/20 00:36:11;;;;;;;7.43;5.87;;;;;;;22.61;100.00;101533.28;2077127;28;20703;-70
2023/08/20 00:37:12;;;;;;;13.37;9.30;;;;;;;22.63;100.00;101530.75;2070192;28;20280;-70
2023/08/20 00:38:12;;;;;;;17.20;10.70;;;;;;;22.57;100.00;101527.06;2070328;28;20185;-70
2023/08/20 00:39:14;;;;;;;15.33;9.60;;;;;;;22.60;100.00;101521.19;2069947;28;20193;-70
2023/08/20 00:40:14;;;;;;;12.47;5.87;;;;;;;22.63;100.00;101530.75;2069911;28;20648;-70
2023/08/20 00:41:14;;;;;;;9.17;6.20;;;;;;;22.62;100.00;101524.28;2069088;28;20209;-69
2023/08/20 00:42:15;;;;;;;10.00;6.07;;;;;;;22.36;100.00;101486.69;2070289;28;20182;-70
2023/08/20 00:43:15;;;;;;;10.40;6.50;;;;;;;22.65;100.00;101528.97;2070723;28;20276;-69
2023/08/20 00:44:16;;;;;;;9.53;6.40;;;;;;;22.69;100.00;101525.94;2071076;28;20194;-70
2023/08/20 00:45:16;;;;;;;11.13;6.00;;;;;;;22.37;100.00;101482.59;2069731;28;20197;-70
2023/08/20 00:46:17;;;;;;;8.10;6.17;;;;;;;22.72;100.00;101539.09;2069840;28;20196;-69
2023/08/20 00:47:18;;;;;;;13.40;6.97;;;;;;;22.75;100.00;101555.81;2070162;28;20205;-70
2023/08/20 00:48:18;;;;;;;11.23;6.70;;;;;;;22.77;100.00;101532.72;2069790;28;20205;-69
2023/08/20 00:49:19;;;;;;;9.87;7.10;;;;;;;22.78;100.00;101531.44;2070435;28;20243;-69
2023/08/20 00:50:20;;;;;;;12.67;7.07;;;;;;;22.75;100.00;101535.25;2070366;28;20186;-70
2023/08/20 00:51:21;;;;;;;11.80;6.87;;;;;;;22.47;100.00;101497.41;2068440;28;20227;-70
2023/08/20 00:52:22;;;;;;;12.33;6.83;;;;;;;22.43;100.00;101483.47;2069697;28;20620;-70
2023/08/20 00:53:22;;;;;;;10.83;6.77;;;;;;;22.27;100.00;101455.00;2062120;28;20182;-70
2023/08/20 00:54:23;;;;;;;12.23;7.33;;;;;;;22.80;100.00;101537.38;2068184;28;20197;-70
2023/08/20 00:55:23;;;;;;;15.80;7.60;;;;;;;22.39;100.00;101470.81;2070492;28;20189;-70
2023/08/20 00:56:24;;;;;;;11.17;6.77;;;;;;;22.56;100.00;101503.69;2069260;28;20284;-70
2023/08/20 00:57:26;;;;;;;10.33;7.87;;;;;;;22.79;100.00;101541.47;2069778;28;20197;-70
2023/08/20 00:58:27;;;;;;;12.40;7.30;;;;;;;22.75;100.00;101544.50;2070043;28;20189;-69
2023/08/20 00:59:29;;;;;;;11.30;7.73;;;;;;;22.09;100.00;101444.75;2069479;28;20526;-69
2023/08/20 01:00:30;;;;;;;13.13;7.50;;;;;;;22.73;100.00;101537.81;2070131;28;20185;-70
2023/08/20 01:01:30;;;;;;;14.40;7.40;;;;;;;22.41;100.00;101477.50;2069275;28;20671;-70
2023/08/20 01:02:31;;;;;;;11.30;7.00;;;;;;;22.73;100.00;101534.97;2062274;28;20197;-70
2023/08/20 01:03:31;;;;;;;12.30;7.50;;;;;;;22.76;100.00;101523.47;2068183;28;20201;-70
2023/08/20 01:04:32;;;;;;;10.70;6.93;;;;;;;22.44;100.00;101487.03;2070125;28;20238;-70
2023/08/20 01:05:39;;;;;;;9.43;6.30;;;;;;;22.77;100.00;101524.25;2069851;28;20216;-70
2023/08/20 01:06:57;;;;;;;12.03;6.73;;;;;;;22.81;100.00;101530.44;2068798;28;20199;-70
2023/08/20 01:08:19;;;;;;;14.10;7.40;;;;;;;22.84;100.00;101529.47;2063122;28;20576;-69
2023/08/20 01:09:28;;;;;;;12.80;7.70;;;;;;;22.82;100.00;101532.78;2069869;28;20725;-70
2023/08/20 01:10:40;;;;;;;8.43;6.80;;;;;;;22.82;100.00;101527.13;2070170;28;20667;-69
2023/08/20 01:11:59;;;;;;;9.10;6.57;;;;;;;22.82;100.00;101529.94;2069855;28;20197;-70
2023/08/20 01:13:01;;;;;;;9.73;6.47;;;;;;;22.70;100.00;101508.50;2069430;28;20630;-70
2023/08/20 01:14:02;;;;;;;12.27;6.80;;;;;;;22.44;100.00;101470.09;2070353;28;20670;-70
2023/08/20 01:15:02;;;;;;;9.90;6.10;;;;;;;22.65;100.00;101526.16;2075045;28;20650;-69
2023/08/20 01:16:03;;;;;;;8.63;6.10;;;;;;;22.89;100.00;101528.75;2076848;28;20568;-70
2023/08/20 01:17:03;;;;;;;9.70;6.47;;;;;;;22.87;100.00;101523.59;2069852;28;20190;-70
2023/08/20 01:18:04;;;;;;;15.23;6.47;;;;;;;22.88;100.00;101532.84;2068445;28;20205;-70
2023/08/20 01:19:06;;;;;;;9.77;6.43;;;;;;;22.88;100.00;101539.28;2065175;28;20261;-70
2023/08/20 01:20:09;;;;;;;8.57;6.50;;;;;;;22.75;100.00;101521.13;2063199;28;20369;-69
2023/08/20 01:21:39;;;;;;;9.20;6.20;;;;;;;22.85;100.00;101536.66;2071519;28;20178;-70
2023/08/20 01:23:16;;;;;;;9.63;6.03;;;;;;;22.82;100.00;101535.59;2065003;28;20175;-70
2023/08/20 01:24:29;;;;;;;9.87;6.03;;;;;;;22.79;100.00;101533.78;2070408;28;20193;-69
2023/08/20 01:25:29;;;;;;;15.30;6.23;;;;;;;22.77;100.00;101533.47;2072220;28;20201;-70
2023/08/20 01:27:04;;;;;;;8.73;5.90;;;;;;;22.77;100.00;101530.66;2071604;28;20325;-70
2023/08/20 01:28:35;;;;;;;7.60;5.50;;;;;;;22.75;100.00;101536.03;2051726;28;20205;-69
2023/08/20 01:29:36;;;;;;;11.97;5.90;;;;;;;22.76;100.00;101536.78;2067778;28;20259;-70
2023/08/20 01:30:37;;;;;;;8.10;5.80;;;;;;;22.76;100.00;101536.78;2071067;28;20158;-70
2023/08/20 01:31:39;;;;;;;10.00;5.90;;;;;;;22.76;100.00;101533.97;2075801;28;20238;-70
2023/08/20 01:32:44;;;;;;;9.10;6.00;;;;;;;22.76;100.00;101546.06;2069228;28;20284;-70
2023/08/20 01:33:45;;;;;;;10.10;6.37;;;;;;;22.52;100.00;101505.94;2061270;28;20178;-70
2023/08/20 01:34:46;;;;;;;12.63;5.97;;;;;;;22.75;100.00;101541.69;2069185;28;20296;-70
2023/08/20 01:35:46;;;;;;;8.73;5.83;;;;;;;22.74;100.00;101531.66;2069506;28;20189;-70
2023/08/20 01:36:47;;;;;;;7.30;6.00;;;;;;;22.76;100.00;101537.59;2069364;28;20198;-70
2023/08/20 01:37:47;;;;;;;9.63;6.13;;;;;;;22.77;100.00;101536.31;2070314;28;20205;-70
2023/08/20 01:38:48;;;;;;;8.50;6.33;;;;;;;22.74;100.00;101528.03;2070592;28;20280;-70
2023/08/20 01:39:48;;;;;;;17.07;6.93;;;;;;;22.81;100.00;101544.56;2069736;28;20577;-70
2023/08/20 01:40:49;;;;;;;13.23;7.13;;;;;;;22.79;100.00;101535.81;2070526;28;20185;-70
2023/08/20 01:41:49;;;;;;;12.27;7.47;;;;;;;22.78;100.00;101537.09;2070490;28;20224;-70
2023/08/20 01:42:49;;;;;;;10.30;6.50;;;;;;;22.77;100.00;101535.56;2070112;28;20232;-70
2023/08/20 01:43:50;;;;;;;9.07;5.90;;;;;;;22.44;100.00;101492.69;2070515;28;20197;-70
2023/08/20 01:44:50;;;;;;;8.97;6.47;;;;;;;22.43;100.00;101493.97;2068962;28;20197;-70
2023/08/20 01:45:51;;;;;;;12.90;6.33;;;;;;;22.46;100.00;101498.69;2069351;28;20276;-70
2023/08/20 01:46:51;;;;;;;9.23;6.43;;;;;;;22.23;100.00;101465.72;2069471;28;20594;-70
2023/08/20 01:47:52;;;;;;;8.00;5.83;;;;;;;22.73;100.00;101549.88;2070257;28;20265;-70
2023/08/20 01:48:52;;;;;;;9.23;6.80;;;;;;;22.71;100.00;101545.97;2069893;28;20186;-70
2023/08/20 01:49:52;;;;;;;9.83;6.30;;;;;;;22.54;100.00;101528.03;2069366;28;20587;-70
2023/08/20 01:50:53;;;;;;;8.80;5.97;;;;;;;22.63;100.00;101542.03;2065126;28;20706;-70
2023/08/20 01:51:53;;;;;;;8.73;5.77;;;;;;;22.63;100.00;101544.88;2070251;28;20201;-70
2023/08/20 01:52:54;;;;;;;7.67;5.57;;;;;;;22.65;100.00;101545.13;2070203;28;20280;-70
2023/08/20 01:53:54;;;;;;;9.50;6.13;;;;;;;22.68;100.00;101544.16;2073009;28;20193;-70
2023/08/20 01:54:55;;;;;;;12.63;6.53;;;;;;;22.64;100.00;101535.13;2068743;28;20201;-70
2023/08/20 01:55:55;;;;;;;10.27;6.37;;;;;;;22.66;100.00;101541.03;2075402;28;20574;-70
2023/08/20 01:56:55;;;;;;;14.23;6.30;;;;;;;22.62;100.00;101538.44;2069531;28;20174;-70
2023/08/20 01:57:56;;;;;;;7.80;6.07;;;;;;;22.54;100.00;101536.50;2074583;28;20315;-70
2023/08/20 01:58:56;;;;;;;7.93;5.90;;;;;;;22.50;100.00;101541.59;2077740;28;20196;-70
2023/08/20 01:59:57;;;;;;;9.53;6.13;;;;;;;22.48;100.00;101539.28;2076651;28;20185;-69
2023/08/20 02:00:58;;;;;;;7.43;5.83;;;;;;;22.48;100.00;101538.50;2070184;28;20200;-70
2023/08/20 02:01:58;;;;;;;7.47;6.17;;;;;;;22.51;100.00;101540.34;2070324;28;20189;-70
2023/08/20 02:02:59;;;;;;;9.93;6.67;;;;;;;22.51;100.00;101537.53;2069860;28;20272;-70
2023/08/20 02:03:59;;;;;;;10.70;6.40;;;;;;;22.24;100.00;101506.78;2068186;28;20181;-70
2023/08/20 02:05:01;;;;;;;8.50;6.30;;;;;;;22.43;100.00;101527.88;2070139;28;20170;-70
2023/08/20 02:06:01;;;;;;;9.23;5.93;;;;;;;22.42;100.00;101538.38;2076072;28;20216;-70
2023/08/20 02:07:02;;;;;;;6.67;5.30;;;;;;;22.37;100.00;101541.13;2069741;28;20671;-70
2023/08/20 02:08:02;;;;;;;10.47;6.43;;;;;;;22.34;100.00;101536.47;2069151;28;20646;-69
2023/08/20 02:09:03;;;;;;;8.97;6.13;;;;;;;22.28;100.00;101533.56;2069126;28;20248;-70
2023/08/20 02:10:04;;;;;;;11.73;6.70;;;;;;;22.24;100.00;101533.00;2069435;28;20193;-70
2023/08/20 02:11:05;;;;;;;11.97;6.73;;;;;;;22.30;100.00;101544.34;2069984;28;20201;-70
2023/08/20 02:12:05;;;;;;;11.30;6.20;;;;;;;22.26;100.00;101538.91;2070017;28;20284;-70
2023/08/20 02:13:07;;;;;;;7.67;5.73;;;;;;;21.95;100.00;101487.13;2069966;28;20177;-70
2023/08/20 02:14:07;;;;;;;10.50;6.83;;;;;;;22.25;100.00;101540.19;2069341;28;20262;-70
2023/08/20 02:15:08;;;;;;;7.87;6.30;;;;;;;22.25;100.00;101533.75;2070128;28;20182;-69
2023/08/20 02:16:09;;;;;;;8.67;6.37;;;;;;;22.24;100.00;101537.84;2068471;28;20189;-70
2023/08/20 02:17:12;;;;;;;9.97;6.60;;;;;;;22.23;100.00;101534.25;2068983;28;20197;-70
2023/08/20 02:18:12;;;;;;;10.73;6.70;;;;;;;21.59;100.00;101433.94;2070914;28;20224;-70
2023/08/20 02:19:13;;;;;;;8.93;6.63;;;;;;;22.23;100.00;101533.47;2069964;28;21059;-70
2023/08/20 02:20:14;;;;;;;8.60;6.87;;;;;;;22.22;100.00;101535.50;2064762;28;20651;-70
2023/08/20 02:21:14;;;;;;;10.83;6.97;;;;;;;22.21;100.00;101531.13;2064229;28;20269;-70
2023/08/20 02:22:15;;;;;;;8.30;6.50;;;;;;;22.11;100.00;101537.41;2069126;28;20185;-70
2023/08/20 02:23:15;;;;;;;8.93;6.43;;;;;;;21.77;100.00;101490.97;2069885;28;20273;-70
2023/08/20 02:24:15;;;;;;;11.23;6.83;;;;;;;22.07;100.00;101542.47;2070078;28;20182;-70
2023/08/20 02:25:16;;;;;;;10.33;6.73;;;;;;;22.03;100.00;101533.41;2069264;28;20216;-70
2023/08/20 02:26:16;;;;;;;8.87;6.70;;;;;;;22.08;100.00;101542.00;2069191;28;20273;-70
2023/08/20 02:27:17;;;;;;;11.00;6.90;;;;;;;22.09;100.00;101531.44;2067652;28;20241;-69
2023/08/20 02:28:19;;;;;;;11.27;6.60;;;;;;;22.10;100.00;101530.97;2069516;28;20242;-70
2023/08/20 02:29:20;;;;;;;7.87;6.67;;;;;;;22.06;100.00;101538.84;2070191;28;20275;-70
2023/08/20 02:30:21;;;;;;;7.43;6.50;;;;;;;22.09;100.00;101540.72;2069563;28;20204;-70
2023/08/20 02:31:21;;;;;;;7.87;6.40;;;;;;;22.11;100.00;101541.00;2070045;28;20185;-70
2023/08/20 02:32:21;;;;;;;10.17;6.30;;;;;;;22.10;100.00;101539.44;2069497;28;20181;-69
2023/08/20 02:33:22;;;;;;;9.07;7.00;;;;;;;22.09;100.00;101539.94;2070288;28;20178;-70
2023/08/20 02:34:22;;;;;;;10.10;6.30;;;;;;;22.12;100.00;101539.75;2069157;28;20302;-70
2023/08/20 02:35:23;;;;;;;8.67;6.70;;;;;;;22.01;100.00;101524.69;2069178;28;20201;-70
2023/08/20 02:36:23;;;;;;;11.20;6.40;;;;;;;22.14;100.00;101537.19;2068833;28;20487;-70
2023/08/20 02:37:24;;;;;;;9.70;6.57;;;;;;;22.16;100.00;101548.00;2068304;28;20674;-70
2023/08/20 02:38:24;;;;;;;11.23;7.10;;;;;;;22.14;100.00;101545.66;2067612;28;20697;-70
2023/08/20 02:39:25;;;;;;;10.47;6.90;;;;;;;21.40;100.00;101421.31;2068947;28;20673;-70
2023/08/20 02:40:25;;;;;;;10.77;6.77;;;;;;;22.13;100.00;101554.63;2075680;28;20703;-69
2023/08/20 02:41:25;;;;;;;8.93;6.63;;;;;;;22.15;100.00;101552.88;2085423;28;20199;-70
2023/08/20 02:42:26;;;;;;;9.30;6.77;;;;;;;22.17;100.00;101553.16;2070085;28;20201;-70
2023/08/20 02:43:26;;;;;;;12.43;7.30;;;;;;;21.97;100.00;101535.38;2069885;28;20193;-70
2023/08/20 02:44:27;;;;;;;12.57;6.93;;;;;;;22.18;100.00;101557.53;2069378;28;20194;-70
2023/08/20 02:45:27;;;;;;;13.17;7.87;;;;;;;22.17;100.00;101555.19;2069157;28;20201;-70
2023/08/20 02:46:27;;;;;;;16.83;7.43;;;;;;;22.15;100.00;101558.50;2068911;28;20271;-70
2023/08/20 02:47:28;;;;;;;17.20;7.30;;;;;;;22.16;100.00;101551.59;2068562;28;20181;-70
2023/08/20 02:48:29;;;;;;;11.67;6.87;;;;;;;22.17;100.00;101550.34;2068136;28;20713;-70
2023/08/20 02:49:29;;;;;;;14.20;6.70;;;;;;;22.10;100.00;101541.50;2068988;28;20192;-70
2023/08/20 02:50:30;;;;;;;15.43;7.33;;;;;;;22.18;100.00;101554.72;2069702;28;20239;-70
2023/08/20 02:51:31;;;;;;;15.97;7.17;;;;;;;22.16;100.00;101556.47;2069579;28;20197;-70
2023/08/20 02:52:31;;;;;;;11.17;7.53;;;;;;;21.68;100.00;101485.41;2069353;28;20249;-69
2023/08/20 02:53:32;;;;;;;11.63;7.07;;;;;;;21.16;100.00;101412.97;2069295;28;20190;-70
2023/08/20 02:54:33;;;;;;;14.37;6.93;;;;;;;22.18;100.00;101559.56;2069757;28;20193;-70
2023/08/20 02:55:33;;;;;;;13.70;7.10;;;;;;;22.18;100.00;101566.00;2074458;28;20205;-69
2023/08/20 02:56:34;;;;;;;12.43;7.20;;;;;;;21.97;100.00;101524.88;2069270;28;20193;-70
2023/08/20 02:57:34;;;;;;;11.80;7.47;;;;;;;22.12;100.00;101561.53;2069948;28;20201;-69
2023/08/20 02:58:35;;;;;;;11.97;6.83;;;;;;;22.09;100.00;101568.16;2069589;28;20228;-70
2023/08/20 02:59:35;;;;;;;9.73;6.80;;;;;;;21.52;100.00;101493.56;2067492;28;20667;-69
2023/08/20 03:00:36;;;;;;;15.77;6.47;;;;;;;22.03;100.00;101568.09;2068767;28;20193;-70
2023/08/20 03:01:36;;;;;;;11.10;5.97;;;;;;;22.00;100.00;101565.47;2069247;28;20205;-70
2023/08/20 03:02:37;;;;;;;9.07;6.23;;;;;;;21.97;100.00;101569.25;2069402;28;20193;-70
2023/08/20 03:03:38;;;;;;;9.27;6.57;;;;;;;21.97;100.00;101570.03;2069797;28;20203;-69
2023/08/20 03:04:38;;;;;;;12.70;7.03;;;;;;;21.71;100.00;101523.16;2069478;28;20186;-70
2023/08/20 03:05:38;;;;;;;9.37;5.90;;;;;;;21.97;100.00;101567.22;2068677;28;20193;-70
2023/08/20 03:06:39;;;;;;;12.37;6.13;;;;;;;22.00;100.00;101568.28;2069488;28;20185;-70
2023/08/20 03:07:39;;;;;;;8.93;6.50;;;;;;;21.79;100.00;101533.56;2069432;28;20198;-70
2023/08/20 03:08:40;;;;;;;10.57;6.80;;;;;;;22.01;100.00;101562.13;2069904;28;20259;-69
2023/08/20 03:09:40;;;;;;;12.10;6.30;;;;;;;22.01;100.00;101562.13;2068385;28;20197;-70
2023/08/20 03:10:41;;;;;;;11.63;6.40;;;;;;;22.03;100.00;101564.47;2069522;28;20193;-69
2023/08/20 03:11:41;;;;;;;15.03;6.33;;;;;;;22.05;100.00;101559.13;2067784;28;20201;-69
2023/08/20 03:12:42;;;;;;;8.83;6.30;;;;;;;22.03;100.00;101581.41;2069077;28;20207;-70
2023/08/20 03:13:42;;;;;;;9.00;6.37;;;;;;;22.05;100.00;101553.50;2069511;28;20263;-69
2023/08/20 03:14:42;;;;;;;8.90;6.40;;;;;;;22.05;100.00;101551.41;2070145;28;20185;-70
2023/08/20 03:15:43;;;;;;;10.00;6.70;;;;;;;22.05;100.00;101561.94;2068150;28;20186;-70
2023/08/20 03:16:43;;;;;;;9.57;6.67;;;;;;;21.99;100.00;101556.22;2068872;28;20253;-69
2023/08/20 03:17:44;;;;;;;14.80;6.63;;;;;;;21.88;100.00;101541.91;2069608;28;20236;-69
2023/08/20 03:18:44;;;;;;;9.30;6.30;;;;;;;21.93;100.00;101543.25;2070743;28;20189;-69
2023/08/20 03:19:58;;;;;;;10.53;7.03;;;;;;;21.70;100.00;101518.78;2071223;28;20205;-70
2023/08/20 03:20:59;;;;;;;12.37;6.30;;;;;;;22.01;100.00;101573.41;2068822;28;20580;-70
2023/08/20 03:21:59;;;;;;;9.70;6.40;;;;;;;21.60;100.00;101509.59;2070037;28;20432;-70
2023/08/20 03:22:59;;;;;;;12.03;7.00;;;;;;;22.00;100.00;101559.81;2070478;28;20200;-70
2023/08/20 03:24:00;;;;;;;12.13;7.23;;;;;;;21.84;100.00;101546.19;2071189;28;20193;-69
2023/08/20 03:25:00;;;;;;;10.97;6.60;;;;;;;21.99;100.00;101561.06;2070290;28;20718;-70
2023/08/20 03:26:01;;;;;;;10.33;6.63;;;;;;;22.00;100.00;101562.63;2068505;28;20279;-70
2023/08/20 03:27:02;;;;;;;8.17;5.90;;;;;;;21.98;100.00;101563.13;2069516;28;20197;-70
2023/08/20 03:28:03;;;;;;;12.83;7.17;;;;;;;21.49;100.00;101498.13;2069713;28;20209;-69
2023/08/20 03:29:04;;;;;;;10.27;6.70;;;;;;;21.96;100.00;101562.81;2069995;28;20451;-69
2023/08/20 03:30:05;;;;;;;9.43;6.10;;;;;;;21.94;100.00;101551.25;2069127;28;28983;-69
2023/08/20 03:31:05;;;;;;;10.93;6.40;;;;;;;21.69;100.00;101523.63;2068710;28;20182;-69
2023/08/20 03:32:05;;;;;;;11.47;6.77;;;;;;;21.89;100.00;101545.50;2069648;28;20651;-69
2023/08/20 03:33:06;;;;;;;8.23;6.47;;;;;;;21.94;100.00;101562.53;2071853;28;20190;-70
2023/08/20 03:34:08;;;;;;;9.13;6.40;;;;;;;21.96;100.00;101562.81;2068003;28;20196;-70
2023/08/20 03:35:09;;;;;;;10.03;6.60;;;;;;;21.59;100.00;101507.28;2071074;28;20649;-69
2023/08/20 03:36:09;;;;;;;13.80;7.10;;;;;;;21.93;100.00;101563.03;2070444;28;20791;-70
2023/08/20 03:37:10;;;;;;;10.33;6.83;;;;;;;21.93;100.00;101563.81;2070998;28;20281;-69
2023/08/20 03:38:10;;;;;;;8.07;6.60;;;;;;;21.26;100.00;101455.94;2071065;28;20201;-70
2023/08/20 03:39:10;;;;;;;9.13;7.20;;;;;;;21.87;100.00;101556.50;2071301;28;20182;-69
2023/08/20 03:40:11;;;;;;;9.70;6.20;;;;;;;21.35;100.00;101486.84;2071022;28;20190;-70
2023/08/20 03:41:11;;;;;;;10.57;6.67;;;;;;;21.75;100.00;101563.25;2070935;28;20570;-70
2023/08/20 03:42:12;;;;;;;7.63;5.90;;;;;;;21.78;100.00;101573.53;2068742;28;20599;-70
2023/08/20 03:43:12;;;;;;;8.93;5.87;;;;;;;21.76;100.00;101570.44;2071043;28;20263;-69
2023/08/20 03:44:13;;;;;;;10.57;6.10;;;;;;;21.75;100.00;101578.09;2071357;28;20259;-69
2023/08/20 03:45:13;;;;;;;8.07;6.50;;;;;;;21.75;100.00;101572.47;2070334;28;20193;-69
2023/08/20 03:46:13;;;;;;;10.30;7.00;;;;;;;21.39;100.00;101521.28;2070414;28;20221;-69
2023/08/20 03:47:15;;;;;;;14.20;7.57;;;;;;;21.46;100.00;101535.00;2070217;28;20185;-70
2023/08/20 03:48:15;;;;;;;13.40;7.07;;;;;;;21.71;100.00;101577.56;2071256;28;20205;-70
2023/08/20 03:49:16;;;;;;;12.07;7.53;;;;;;;21.71;100.00;101580.38;2071643;28;20953;-69
2023/08/20 03:50:16;;;;;;;9.67;7.30;;;;;;;21.71;100.00;101579.59;2071288;28;20193;-70
2023/08/20 03:51:17;;;;;;;10.30;7.63;;;;;;;21.68;100.00;101578.50;2070430;28;20186;-69
2023/08/20 03:52:17;;;;;;;8.13;7.03;;;;;;;21.75;100.00;101577.34;2069123;28;20194;-69
2023/08/20 03:53:17;;;;;;;11.53;7.33;;;;;;;21.72;100.00;101570.63;2069647;28;20193;-69
2023/08/20 03:54:18;;;;;;;8.13;6.47;;;;;;;21.68;100.00;101578.50;2070438;28;20197;-69
2023/08/20 03:55:19;;;;;;;9.50;6.37;;;;;;;21.65;100.00;101568.16;2070697;28;20184;-70
2023/08/20 03:56:19;;;;;;;9.23;6.80;;;;;;;21.62;100.00;101577.59;2069929;28;20688;-69
2023/08/20 03:57:19;;;;;;;12.37;7.57;;;;;;;21.63;100.00;101572.72;2069594;28;20297;-69
2023/08/20 03:58:20;;;;;;;8.97;6.90;;;;;;;21.56;100.00;101568.28;2071009;28;20197;-69
2023/08/20 03:59:20;;;;;;;10.13;7.77;;;;;;;21.63;100.00;101569.91;2071059;28;20276;-70
2023/08/20 04:00:20;;;;;;;8.27;7.30;;;;;;;21.63;100.00;101573.50;2070882;28;20636;-69
2023/08/20 04:01:21;;;;;;;11.13;7.03;;;;;;;21.41;100.00;101549.75;2070485;28;20284;-69
2023/08/20 04:02:21;;;;;;;11.07;7.60;;;;;;;21.52;100.00;101564.84;2070858;28;20220;-70
2023/08/20 04:03:22;;;;;;;10.50;7.90;;;;;;;21.66;100.00;101580.22;2069472;28;20193;-70
2023/08/20 04:04:22;;;;;;;8.37;7.33;;;;;;;21.66;100.00;101575.38;2071003;28;20189;-70
2023/08/20 04:05:23;;;;;;;10.00;7.40;;;;;;;21.20;100.00;101517.88;2070188;28;20324;-69
2023/08/20 04:06:23;;;;;;;9.43;7.17;;;;;;;21.59;100.00;101583.44;2071019;28;20324;-69
2023/08/20 04:07:24;;;;;;;11.77;7.80;;;;;;;21.61;100.00;101584.50;2071019;28;20193;-69
2023/08/20 04:08:24;;;;;;;10.30;7.20;;;;;;;21.61;100.00;101587.34;2071349;28;20213;-70
2023/08/20 04:09:24;;;;;;;12.03;7.20;;;;;;;21.55;100.00;101586.44;2070774;28;20186;-70
2023/08/20 04:10:25;;;;;;;12.23;7.50;;;;;;;21.12;100.00;101519.50;2070707;28;20182;-70
2023/08/20 04:11:25;;;;;;;12.00;7.30;;;;;;;21.54;100.00;101576.41;2070961;28;20220;-70
2023/08/20 04:12:26;;;;;;;10.80;7.43;;;;;;;21.56;100.00;101588.00;2071053;28;20189;-69
2023/08/20 04:13:26;;;;;;;10.20;7.20;;;;;;;21.57;100.00;101589.56;2069740;28;20265;-70
2023/08/20 04:14:26;;;;;;;8.63;7.00;;;;;;;21.58;100.00;101601.59;2070149;28;20189;-70
2023/08/20 04:15:27;;;;;;;11.10;6.83;;;;;;;21.57;100.00;101588.78;2070171;28;20204;-69
2023/08/20 04:16:29;;;;;;;9.97;6.80;;;;;;;21.34;100.00;101550.16;2068739;28;20573;-69
2023/08/20 04:17:29;;;;;;;9.47;6.90;;;;;;;21.29;100.00;101539.56;2069060;28;20251;-69
2023/08/20 04:18:30;;;;;;;14.00;6.97;;;;;;;21.66;100.00;101592.31;2071183;28;20221;-70
2023/08/20 04:19:30;;;;;;;7.97;6.80;;;;;;;21.70;100.00;101592.13;2070356;28;20271;-69
2023/08/20 04:20:31;;;;;;;7.97;6.43;;;;;;;21.21;100.00;101510.97;2069828;28;20781;-69
2023/08/20 04:21:31;;;;;;;9.47;7.00;;;;;;;21.09;100.00;101500.72;2070561;28;20686;-69
2023/08/20 04:22:32;;;;;;;10.00;7.20;;;;;;;21.70;100.00;101586.50;2071084;28;20182;-69
2023/08/20 04:23:32;;;;;;;10.83;6.70;;;;;;;21.72;100.00;101586.78;2069882;28;20598;-69
2023/08/20 04:24:33;;;;;;;12.87;7.23;;;;;;;21.69;100.00;101577.25;2069298;28;20276;-70
2023/08/20 04:25:34;;;;;;;12.60;7.23;;;;;;;20.90;100.00;101461.94;2069971;28;20181;-70
2023/08/20 04:26:34;;;;;;;12.57;6.53;;;;;;;21.68;100.00;101588.97;2070088;28;20189;-69
2023/08/20 04:27:35;;;;;;;9.73;7.03;;;;;;;21.67;100.00;101588.22;2077076;28;20777;-70
2023/08/20 04:28:35;;;;;;;13.17;6.63;;;;;;;21.78;100.00;101604.56;2077940;28;20824;-70
2023/08/20 04:29:35;;;;;;;8.30;6.27;;;;;;;21.82;100.00;101594.66;2070429;28;20173;-69
2023/08/20 04:30:36;;;;;;;8.10;6.63;;;;;;;21.87;100.00;101596.03;2072065;28;20173;-69
2023/08/20 04:31:36;;;;;;;14.03;6.37;;;;;;;21.93;100.00;101605.34;2070696;28;20260;-70
2023/08/20 04:32:37;;;;;;;9.17;7.07;;;;;;;20.93;100.00;101439.19;2070105;28;20276;-69
2023/08/20 04:33:37;;;;;;;9.97;7.67;;;;;;;21.95;100.00;101597.97;2070197;28;20578;-70
2023/08/20 04:34:38;;;;;;;11.07;7.83;;;;;;;22.04;100.00;101597.06;2070530;28;20208;-70
2023/08/20 04:35:38;;;;;;;11.77;8.23;;;;;;;22.06;100.00;101600.97;2075953;28;20290;-69
2023/08/20 04:36:38;;;;;;;11.77;8.33;;;;;;;22.10;100.00;101601.53;2076685;28;20654;-70
2023/08/20 04:37:39;;;;;;;9.67;7.53;;;;;;;21.84;100.00;101561.09;2070441;28;20629;-69
2023/08/20 04:38:39;;;;;;;11.17;7.37;;;;;;;22.23;100.00;101609.72;2070833;28;20177;-70
2023/08/20 04:39:40;;;;;;;11.67;6.77;;;;;;;21.84;100.00;101534.91;2070225;28;20241;-70
2023/08/20 04:40:40;;;;;;;11.70;7.60;;;;;;;22.27;100.00;101599.75;2070707;28;20188;-69